Time;durP1;ratioP1;P1;durP2;ratioP2;P2;SDS_P1;SDS_P2;PMS_P1;PMS_P2;Temp;Humidity;BMP_temperature;BMP_pressure;BME280_temperature;BME280_humidity;BME280_pressure;Samples;Min_cycle;Max_cycle;Signal;HPM_P1;HPM_P2
2024/02/09 00:02:15;;;;;;;1.88;1.30;;;8.30;99.90;;;;;;5017292;28;20891;-47
2024/02/09 00:04:44;;;;;;;3.60;1.37;;;8.30;99.90;;;;;;5016483;28;20641;-48
2024/02/09 00:07:14;;;;;;;3.00;1.10;;;8.30;99.90;;;;;;5021979;28;20936;-47
2024/02/09 00:09:46;;;;;;;2.03;1.38;;;8.30;99.90;;;;;;5022979;28;20489;-47
2024/02/09 00:12:16;;;;;;;2.17;1.27;;;8.30;99.90;;;;;;5021376;28;20201;-46
2024/02/09 00:14:44;;;;;;;2.77;1.53;;;8.30;99.90;;;;;;5022469;28;20552;-44
2024/02/09 00:17:12;;;;;;;1.90;0.95;;;8.30;99.90;;;;;;5020379;28;20459;-46
2024/02/09 00:19:42;;;;;;;3.37;1.67;;;8.30;99.90;;;;;;5019477;28;20229;-47
2024/02/09 00:22:11;;;;;;;3.65;1.70;;;8.30;99.90;;;;;;5026431;28;20451;-47
2024/02/09 00:24:42;;;;;;;2.30;1.30;;;8.30;99.90;;;;;;5024885;28;20244;-46
2024/02/09 00:27:12;;;;;;;2.28;1.17;;;8.30;99.90;;;;;;5015710;28;20193;-45
2024/02/09 00:29:41;;;;;;;2.43;1.13;;;8.30;99.90;;;;;;5015983;28;20225;-47
2024/02/09 00:32:10;;;;;;;1.63;1.13;;;8.30;99.90;;;;;;5020163;28;20435;-47
2024/02/09 00:34:39;;;;;;;3.37;1.20;;;8.30;99.90;;;;;;5016135;28;20212;-48
2024/02/09 00:37:08;;;;;;;4.10;1.20;;;8.30;99.90;;;;;;5018183;28;20440;-47
2024/02/09 00:39:36;;;;;;;2.37;2.10;;;8.30;99.90;;;;;;5016840;28;20918;-46
2024/02/09 00:42:06;;;;;;;2.22;1.20;;;8.30;99.90;;;;;;5014556;28;20439;-47
2024/02/09 00:44:37;;;;;;;4.20;1.37;;;8.30;99.90;;;;;;5018026;28;20838;-46
2024/02/09 00:47:07;;;;;;;2.53;1.48;;;8.30;99.90;;;;;;5011739;28;20790;-47
2024/02/09 00:49:37;;;;;;;3.07;1.20;;;8.30;99.90;;;;;;5016006;28;20705;-46
2024/02/09 00:52:06;;;;;;;1.90;1.03;;;8.30;99.90;;;;;;5014116;28;20886;-45
2024/02/09 00:54:34;;;;;;;3.20;1.53;;;8.30;99.90;;;;;;5015497;28;20444;-45
2024/02/09 00:57:05;;;;;;;2.10;1.38;;;8.30;99.90;;;;;;5018143;28;20470;-46
2024/02/09 00:59:36;;;;;;;3.30;1.20;;;8.30;99.90;;;;;;5012899;28;20211;-48
2024/02/09 01:02:06;;;;;;;2.93;1.10;;;8.30;99.90;;;;;;5011878;28;20502;-46
2024/02/09 01:04:35;;;;;;;1.50;1.00;;;8.30;99.90;;;;;;5021178;28;20880;-45
2024/02/09 01:07:04;;;;;;;1.80;1.10;;;8.30;99.90;;;;;;5012569;28;20436;-46
2024/02/09 01:09:34;;;;;;;2.13;1.40;;;8.30;99.90;;;;;;5015330;28;20460;-47
2024/02/09 02:46:15;;;;;;;1.50;0.90;;;8.30;99.90;;;;;;5015431;28;20281;-48
2024/02/09 03:05:28;;;;;;;1.83;1.05;;;8.40;99.90;;;;;;5021968;28;20642;-45
2024/02/09 03:07:58;;;;;;;1.67;1.10;;;8.40;99.90;;;;;;5025672;28;20219;-47
2024/02/09 03:10:29;;;;;;;1.37;1.13;;;8.40;99.90;;;;;;5020527;28;20786;-46
2024/02/09 03:12:59;;;;;;;2.38;1.42;;;8.40;99.90;;;;;;5026978;28;20441;-47
2024/02/09 03:15:27;;;;;;;2.35;1.05;;;8.40;99.90;;;;;;5025973;28;20690;-46
2024/02/09 03:17:56;;;;;;;1.43;0.90;;;8.40;99.90;;;;;;5027418;28;20199;-48
2024/02/09 03:20:26;;;;;;;1.70;1.40;;;8.40;99.90;;;;;;5026727;28;21217;-46
2024/02/09 03:22:55;;;;;;;1.52;1.10;;;8.40;99.90;;;;;;5026769;28;20490;-47
2024/02/09 03:25:24;;;;;;;1.92;1.00;;;8.40;99.90;;;;;;5021005;28;20657;-48
2024/02/09 03:27:52;;;;;;;2.78;1.38;;;8.40;99.90;;;;;;5029551;28;20284;-49
2024/02/09 03:30:22;;;;;;;2.60;1.10;;;8.40;99.90;;;;;;5028479;28;20679;-48
2024/02/09 03:32:50;;;;;;;4.28;1.13;;;8.40;99.90;;;;;;5021788;28;20551;-48
2024/02/09 03:35:19;;;;;;;2.30;1.52;;;8.40;99.90;;;;;;5027690;28;20220;-45
2024/02/09 03:37:48;;;;;;;2.47;1.83;;;8.40;99.90;;;;;;5024539;28;20245;-46
2024/02/09 03:40:16;;;;;;;1.50;0.83;;;8.40;99.90;;;;;;5023814;28;20863;-46
2024/02/09 03:42:45;;;;;;;1.57;1.00;;;8.40;99.90;;;;;;5026075;28;20452;-47
2024/02/09 03:45:13;;;;;;;2.07;0.87;;;8.40;99.90;;;;;;5029460;28;20981;-46
2024/02/09 03:47:43;;;;;;;1.40;0.90;;;8.40;99.90;;;;;;5026306;28;20454;-45
2024/02/09 03:50:12;;;;;;;1.98;0.95;;;8.40;99.90;;;;;;5032586;28;20702;-46
2024/02/09 03:52:44;;;;;;;1.60;1.30;;;8.40;99.90;;;;;;5030508;28;20225;-45
2024/02/09 03:55:16;;;;;;;1.70;0.90;;;8.40;99.90;;;;;;5029664;28;20471;-45
2024/02/09 03:57:45;;;;;;;4.20;1.10;;;8.40;99.90;;;;;;5024458;28;20941;-47
2024/02/09 04:00:15;;;;;;;1.92;1.00;;;8.40;99.90;;;;;;5028780;28;20513;-45
2024/02/09 04:02:46;;;;;;;1.45;0.85;;;8.40;99.90;;;;;;5023487;28;20222;-47
2024/02/09 04:05:17;;;;;;;1.33;1.00;;;8.40;99.90;;;;;;5024971;28;20475;-47
2024/02/09 04:07:46;;;;;;;1.70;1.27;;;8.40;99.90;;;;;;5024193;28;20511;-45
2024/02/09 04:10:14;;;;;;;2.08;1.15;;;8.40;99.90;;;;;;5019943;28;20224;-47
2024/02/09 04:13:04;;;;;;;1.50;1.00;;;8.40;99.90;;;;;;5019321;28;20618;-46
2024/02/09 04:15:32;;;;;;;1.45;1.00;;;8.40;99.90;;;;;;5017223;28;20585;-46
2024/02/09 04:18:06;;;;;;;1.50;0.90;;;8.40;99.90;;;;;;5022890;28;20193;-47
2024/02/09 04:20:34;;;;;;;2.40;1.30;;;8.40;99.90;;;;;;5024149;28;20574;-47
2024/02/09 04:23:02;;;;;;;1.75;1.20;;;8.40;99.90;;;;;;5022803;28;20497;-47
2024/02/09 04:25:30;;;;;;;1.73;1.30;;;8.40;99.90;;;;;;5022934;28;20290;-47
2024/02/09 04:28:03;;;;;;;2.03;0.83;;;8.40;99.90;;;;;;5023540;28;21019;-46
2024/02/09 04:30:31;;;;;;;2.87;1.30;;;8.40;99.90;;;;;;5022522;28;20481;-45
2024/02/09 04:32:59;;;;;;;1.57;0.80;;;8.40;99.90;;;;;;5017668;28;20509;-47
2024/02/09 04:35:28;;;;;;;2.00;0.97;;;8.40;99.90;;;;;;5021437;28;20530;-45
2024/02/09 04:37:57;;;;;;;1.70;0.87;;;8.40;99.90;;;;;;5024911;28;20478;-46
2024/02/09 04:40:25;;;;;;;1.90;0.97;;;8.40;99.90;;;;;;5016984;28;20528;-47
2024/02/09 04:42:55;;;;;;;1.77;1.13;;;8.40;99.90;;;;;;5021085;28;20451;-45
2024/02/09 04:45:24;;;;;;;2.33;1.27;;;8.40;99.90;;;;;;5018725;28;21043;-46
2024/02/09 04:47:53;;;;;;;1.63;1.10;;;8.40;99.90;;;;;;5023019;28;20870;-47
2024/02/09 04:50:22;;;;;;;2.03;1.00;;;8.40;99.90;;;;;;5023308;28;20533;-47
2024/02/09 04:52:54;;;;;;;1.50;1.10;;;8.40;99.90;;;;;;5018037;28;20990;-47
2024/02/09 04:55:24;;;;;;;2.27;0.80;;;8.40;99.90;;;;;;5015530;28;20467;-45
2024/02/09 04:57:52;;;;;;;1.20;0.70;;;8.40;99.90;;;;;;5018584;28;20451;-45
2024/02/09 05:00:21;;;;;;;1.87;1.10;;;8.40;99.90;;;;;;5021765;28;20486;-46
2024/02/09 05:02:51;;;;;;;1.60;0.90;;;8.40;99.90;;;;;;5017651;28;20473;-45
2024/02/09 05:05:22;;;;;;;1.87;1.07;;;8.40;99.90;;;;;;5018569;28;20972;-48
2024/02/09 05:07:53;;;;;;;1.50;1.10;;;8.40;99.90;;;;;;5024027;28;20432;-46
2024/02/09 05:10:21;;;;;;;1.67;0.87;;;8.40;99.90;;;;;;5020284;28;20472;-46
2024/02/09 05:12:50;;;;;;;1.50;1.00;;;8.40;99.90;;;;;;5020505;28;20475;-47
2024/02/09 05:15:18;;;;;;;1.73;1.25;;;8.40;99.90;;;;;;5014821;28;20872;-48
2024/02/09 05:17:46;;;;;;;1.73;1.02;;;8.40;99.90;;;;;;5016574;28;20194;-47
2024/02/09 05:20:15;;;;;;;1.80;0.80;;;8.50;99.90;;;;;;5020209;28;20225;-47
2024/02/09 05:22:46;;;;;;;1.55;1.02;;;8.40;99.90;;;;;;5016963;28;21207;-45
2024/02/09 05:25:17;;;;;;;1.20;0.70;;;8.50;99.90;;;;;;5017879;28;20492;-47
2024/02/09 05:27:46;;;;;;;1.40;0.87;;;8.50;99.90;;;;;;5018058;28;20429;-46
2024/02/09 05:30:15;;;;;;;2.30;1.07;;;8.40;99.90;;;;;;5018363;28;20510;-47
2024/02/09 05:32:45;;;;;;;1.70;0.88;;;8.40;99.90;;;;;;5015515;28;20486;-46
2024/02/09 05:35:14;;;;;;;1.30;0.73;;;8.40;99.90;;;;;;5018612;28;20228;-47
2024/02/09 05:37:42;;;;;;;1.40;0.90;;;8.40;99.90;;;;;;5019341;28;20447;-46
2024/02/09 05:40:11;;;;;;;1.20;0.83;;;8.40;99.90;;;;;;5017152;28;20988;-45
2024/02/09 05:42:42;;;;;;;1.73;1.00;;;8.40;99.90;;;;;;5011893;28;20472;-47
2024/02/09 05:45:11;;;;;;;2.00;0.83;;;8.50;99.90;;;;;;5014286;28;20578;-45
2024/02/09 05:47:39;;;;;;;2.60;1.10;;;8.50;99.90;;;;;;5015519;28;20448;-47
2024/02/09 05:50:08;;;;;;;1.20;0.87;;;8.40;99.90;;;;;;5024261;28;20548;-46
2024/02/09 05:52:36;;;;;;;1.88;1.10;;;8.50;99.90;;;;;;5019397;28;20460;-45
2024/02/09 05:55:08;;;;;;;1.40;0.90;;;8.50;99.90;;;;;;5012147;28;20312;-47
2024/02/09 05:57:37;;;;;;;1.85;0.70;;;8.40;99.90;;;;;;5014566;28;20444;-45
2024/02/09 06:00:09;;;;;;;2.80;1.00;;;8.40;99.90;;;;;;5015342;28;20262;-48
2024/02/09 06:02:38;;;;;;;2.10;1.00;;;8.50;99.90;;;;;;5015282;28;21529;-47
2024/02/09 06:05:06;;;;;;;1.37;0.67;;;8.50;99.90;;;;;;5014607;28;20460;-47
2024/02/09 06:07:39;;;;;;;2.03;1.00;;;8.50;99.90;;;;;;5021568;28;20938;-46
2024/02/09 06:10:10;;;;;;;2.00;1.13;;;8.50;99.90;;;;;;5013957;28;20885;-46
2024/02/09 06:12:39;;;;;;;1.20;0.70;;;8.50;99.90;;;;;;5023747;28;20869;-46
2024/02/09 06:15:11;;;;;;;1.60;1.00;;;8.50;99.90;;;;;;5018214;28;20456;-45
2024/02/09 06:17:39;;;;;;;2.07;0.93;;;8.50;99.90;;;;;;5020133;28;20502;-47
2024/02/09 06:20:08;;;;;;;1.27;0.80;;;8.50;99.90;;;;;;5020650;28;20989;-46
2024/02/09 06:22:37;;;;;;;1.63;1.20;;;8.40;99.90;;;;;;5021899;28;20439;-47
2024/02/09 06:25:06;;;;;;;1.37;0.97;;;8.50;99.90;;;;;;5015350;28;20554;-47
2024/02/09 06:27:35;;;;;;;1.20;0.73;;;8.40;99.90;;;;;;5018301;28;20448;-46
2024/02/09 06:30:03;;;;;;;1.63;0.83;;;8.50;99.90;;;;;;5022809;28;20494;-47
2024/02/09 06:32:33;;;;;;;1.65;0.98;;;8.40;99.90;;;;;;5017488;28;20452;-46
2024/02/09 06:35:01;;;;;;;1.83;1.13;;;8.50;99.90;;;;;;5018226;28;20256;-46
2024/02/09 06:37:33;;;;;;;1.60;0.80;;;8.50;99.90;;;;;;5022582;28;20519;-46
2024/02/09 06:40:03;;;;;;;2.27;0.83;;;8.50;99.90;;;;;;5020188;28;20462;-47
2024/02/09 06:42:31;;;;;;;2.00;1.03;;;8.50;99.90;;;;;;5021265;28;20922;-45
2024/02/09 06:45:00;;;;;;;1.60;0.93;;;8.50;99.90;;;;;;5015359;28;20456;-46
2024/02/09 06:47:28;;;;;;;2.20;1.00;;;8.50;99.90;;;;;;5020986;28;20448;-47
2024/02/09 06:49:58;;;;;;;1.70;1.00;;;8.50;99.90;;;;;;5021188;28;20463;-46
2024/02/09 06:52:31;;;;;;;1.63;0.97;;;8.50;99.90;;;;;;5022723;28;20463;-47
2024/02/09 06:55:00;;;;;;;2.90;1.03;;;8.50;99.90;;;;;;5016116;28;20459;-46
2024/02/09 06:57:29;;;;;;;1.30;0.93;;;8.50;99.90;;;;;;5019091;28;20550;-47
2024/02/09 06:59:58;;;;;;;2.90;0.90;;;8.50;99.90;;;;;;5021363;28;20456;-46
2024/02/09 07:02:26;;;;;;;1.60;1.10;;;8.50;99.90;;;;;;5016047;28;20972;-48
2024/02/09 07:05:00;;;;;;;3.20;1.20;;;8.50;99.90;;;;;;5016618;28;20463;-47
2024/02/09 07:07:32;;;;;;;2.27;1.10;;;8.50;99.90;;;;;;5023115;28;20451;-46
2024/02/09 07:10:03;;;;;;;7.53;1.10;;;8.50;99.90;;;;;;5012654;28;20472;-45
2024/02/09 07:12:32;;;;;;;1.20;0.80;;;8.50;99.90;;;;;;5019852;28;20479;-46
2024/02/09 07:15:02;;;;;;;1.60;0.97;;;8.50;99.90;;;;;;5013958;28;20848;-44
2024/02/09 07:17:31;;;;;;;2.50;1.20;;;8.50;99.90;;;;;;5017746;28;20447;-45
2024/02/09 07:20:00;;;;;;;1.63;1.03;;;8.50;99.90;;;;;;5025298;28;20463;-46
2024/02/09 07:22:30;;;;;;;2.40;0.97;;;8.50;99.90;;;;;;5022392;28;21340;-47
2024/02/09 07:24:59;;;;;;;1.40;0.83;;;8.50;99.90;;;;;;5019910;28;20475;-44
2024/02/09 07:27:29;;;;;;;1.90;0.93;;;8.50;99.90;;;;;;5022520;28;20440;-47
2024/02/09 07:29:59;;;;;;;1.50;0.70;;;8.50;99.90;;;;;;5021932;28;20493;-47
2024/02/09 07:32:30;;;;;;;2.13;1.13;;;8.50;99.90;;;;;;5020987;28;20474;-46
2024/02/09 07:35:01;;;;;;;2.03;1.33;;;8.50;99.90;;;;;;5017959;28;20863;-45
2024/02/09 07:37:33;;;;;;;2.87;1.10;;;8.50;99.90;;;;;;5026476;28;20515;-46
2024/02/09 07:40:04;;;;;;;1.70;1.10;;;8.50;99.90;;;;;;5020959;28;20514;-45
2024/02/09 07:42:33;;;;;;;1.60;0.70;;;8.50;99.90;;;;;;5018882;28;20432;-48
2024/02/09 07:45:03;;;;;;;1.97;1.53;;;8.50;99.90;;;;;;5018304;28;20452;-48
2024/02/09 07:47:33;;;;;;;1.93;1.33;;;8.50;99.90;;;;;;5023196;28;20494;-47
2024/02/09 07:50:02;;;;;;;2.00;1.17;;;8.50;99.90;;;;;;5025968;28;20458;-47
2024/02/09 07:52:35;;;;;;;1.43;1.00;;;8.50;99.90;;;;;;5022094;28;20464;-45
2024/02/09 07:55:09;;;;;;;4.27;1.37;;;8.50;99.90;;;;;;5013535;28;21636;-46
2024/02/09 07:57:38;;;;;;;1.90;1.00;;;8.50;99.90;;;;;;5023280;28;20937;-46
2024/02/09 08:00:08;;;;;;;1.70;0.90;;;8.50;99.90;;;;;;5020884;28;20459;-46
2024/02/09 08:02:52;;;;;;;2.90;1.40;;;8.50;99.90;;;;;;5010716;28;20482;-46
2024/02/09 08:05:24;;;;;;;1.40;0.90;;;8.50;99.90;;;;;;5020380;28;20983;-47
2024/02/09 08:07:54;;;;;;;1.70;1.03;;;8.50;99.90;;;;;;5024244;28;20438;-46
2024/02/09 08:10:24;;;;;;;3.20;0.87;;;8.50;99.90;;;;;;5017854;28;20523;-48
2024/02/09 08:12:54;;;;;;;1.70;1.10;;;8.50;99.90;;;;;;5018584;28;20527;-48
2024/02/09 08:15:24;;;;;;;1.67;0.97;;;8.50;99.90;;;;;;5018319;28;20467;-45
2024/02/09 08:17:52;;;;;;;2.73;1.47;;;8.50;99.90;;;;;;5021259;28;20535;-45
2024/02/09 08:20:23;;;;;;;2.10;1.20;;;8.50;99.90;;;;;;5020957;28;20481;-44
2024/02/09 08:22:54;;;;;;;1.77;1.07;;;8.50;99.90;;;;;;5019214;28;20528;-46
2024/02/09 08:25:24;;;;;;;1.50;0.90;;;8.50;99.90;;;;;;5019030;28;20995;-45
2024/02/09 08:27:53;;;;;;;1.50;0.90;;;8.50;99.90;;;;;;5018002;28;20448;-45
2024/02/09 08:30:22;;;;;;;1.60;0.90;;;8.50;99.90;;;;;;5020958;28;20475;-44
2024/02/09 08:32:53;;;;;;;1.37;0.80;;;8.50;99.90;;;;;;5018134;28;20742;-45
2024/02/09 08:35:23;;;;;;;1.70;1.13;;;8.50;99.90;;;;;;5017927;28;20464;-46
2024/02/09 08:37:53;;;;;;;2.17;1.17;;;8.50;99.90;;;;;;5020147;28;20749;-45
2024/02/09 08:40:25;;;;;;;1.80;1.40;;;8.50;99.90;;;;;;5020628;28;20565;-45
2024/02/09 08:42:55;;;;;;;1.70;1.07;;;8.60;99.90;;;;;;5017467;28;20457;-45
2024/02/09 08:45:24;;;;;;;2.27;1.17;;;8.50;99.90;;;;;;5014561;28;20494;-46
2024/02/09 08:47:53;;;;;;;1.23;1.00;;;8.60;99.90;;;;;;5017200;28;20447;-49
2024/02/09 08:50:22;;;;;;;1.40;1.00;;;8.60;99.90;;;;;;5019545;28;20548;-48
2024/02/09 08:52:50;;;;;;;2.60;0.83;;;8.50;99.90;;;;;;5019483;28;20468;-49
2024/02/09 08:55:19;;;;;;;4.27;1.27;;;8.50;99.90;;;;;;5017512;28;20472;-48
2024/02/09 08:57:49;;;;;;;2.67;1.30;;;8.50;99.90;;;;;;5018169;28;20834;-47
2024/02/09 09:00:19;;;;;;;2.43;1.27;;;8.50;99.90;;;;;;5016562;28;20559;-47
2024/02/09 09:02:48;;;;;;;1.47;1.10;;;8.60;99.90;;;;;;5018780;28;20472;-47
2024/02/09 09:05:16;;;;;;;1.47;0.90;;;8.60;99.90;;;;;;5013833;28;20499;-47
2024/02/09 09:07:45;;;;;;;1.93;1.10;;;8.60;99.90;;;;;;5019496;28;20434;-49
2024/02/09 09:10:14;;;;;;;1.53;0.77;;;8.60;99.90;;;;;;5017547;28;20459;-46
2024/02/09 09:12:51;;;;;;;2.27;1.17;;;8.60;99.90;;;;;;5018808;28;20494;-48
2024/02/09 09:15:20;;;;;;;2.17;1.30;;;8.60;99.90;;;;;;5019414;28;20518;-47
2024/02/09 09:17:49;;;;;;;2.53;1.20;;;8.60;99.90;;;;;;5016392;28;20476;-47
2024/02/09 09:20:18;;;;;;;3.90;1.97;;;8.60;99.90;;;;;;5024292;28;21123;-46
2024/02/09 09:22:47;;;;;;;2.00;1.10;;;8.60;99.90;;;;;;5020142;28;20548;-46
2024/02/09 09:25:16;;;;;;;1.70;1.20;;;8.60;99.90;;;;;;5016674;28;20464;-47
2024/02/09 09:27:56;;;;;;;1.53;1.03;;;8.60;99.90;;;;;;5018841;28;20736;-47
2024/02/09 09:30:29;;;;;;;3.00;2.10;;;8.60;99.90;;;;;;5014120;28;20943;-46
2024/02/09 09:33:00;;;;;;;3.10;2.00;;;8.70;99.90;;;;;;5015491;28;20213;-47
2024/02/09 09:35:29;;;;;;;1.63;1.20;;;8.70;99.90;;;;;;5017258;28;20579;-47
2024/02/09 09:37:58;;;;;;;2.00;1.27;;;8.70;99.90;;;;;;5020473;28;20434;-45
2024/02/09 09:40:34;;;;;;;2.37;1.00;;;8.70;99.90;;;;;;5020119;28;20578;-46
2024/02/09 09:43:07;;;;;;;2.03;1.07;;;8.70;99.90;;;;;;5014466;28;20468;-45
2024/02/09 09:45:36;;;;;;;5.53;1.90;;;8.70;99.90;;;;;;5015768;28;21056;-46
2024/02/09 09:48:07;;;;;;;1.60;1.10;;;8.70;99.90;;;;;;5016953;28;20529;-46
2024/02/09 09:50:37;;;;;;;3.70;1.90;;;8.70;99.90;;;;;;5021892;28;20483;-47
2024/02/09 09:53:10;;;;;;;2.07;1.43;;;8.60;99.90;;;;;;5014389;28;20460;-46
2024/02/09 09:55:39;;;;;;;2.20;1.67;;;8.60;99.90;;;;;;5019140;28;20464;-45
2024/02/09 09:58:14;;;;;;;2.47;1.30;;;8.60;99.90;;;;;;5021064;28;20490;-46
2024/02/09 10:00:48;;;;;;;3.23;1.67;;;8.60;99.90;;;;;;5016335;28;20464;-47
2024/02/09 10:03:18;;;;;;;2.33;1.30;;;8.60;99.90;;;;;;5016712;28;20564;-47
2024/02/09 10:05:48;;;;;;;2.20;1.40;;;8.60;99.90;;;;;;5017751;28;20468;-47
2024/02/09 10:08:18;;;;;;;2.57;1.60;;;8.60;99.90;;;;;;5021185;28;20947;-48
2024/02/09 10:10:51;;;;;;;3.20;1.40;;;8.60;99.90;;;;;;5016503;28;20467;-46
2024/02/09 10:13:26;;;;;;;3.20;1.50;;;8.60;99.90;;;;;;5021240;28;20464;-47
2024/02/09 10:15:57;;;;;;;2.10;1.00;;;8.60;99.90;;;;;;5020103;28;20467;-47
2024/02/09 10:18:26;;;;;;;4.60;1.30;;;8.60;99.90;;;;;;5018988;28;20455;-48
2024/02/09 10:20:55;;;;;;;1.80;1.37;;;8.60;99.90;;;;;;5018908;28;20469;-46
2024/02/09 10:23:24;;;;;;;2.30;1.30;;;8.60;99.90;;;;;;5020475;28;20480;-48
2024/02/09 10:25:55;;;;;;;1.60;1.10;;;8.60;99.90;;;;;;5011783;28;20519;-49
2024/02/09 10:28:27;;;;;;;2.33;1.87;;;8.60;99.90;;;;;;5020966;28;20428;-47
2024/02/09 10:30:59;;;;;;;1.87;1.57;;;8.60;99.90;;;;;;5017466;28;20994;-47
2024/02/09 10:33:28;;;;;;;1.97;1.43;;;8.60;99.90;;;;;;5014180;28;20464;-47
2024/02/09 10:35:57;;;;;;;4.03;1.33;;;8.60;99.90;;;;;;5016727;28;20456;-47
2024/02/09 10:38:27;;;;;;;1.60;1.27;;;8.60;99.90;;;;;;5020321;28;20427;-47
2024/02/09 10:40:59;;;;;;;2.60;1.57;;;8.60;99.90;;;;;;5016125;28;20468;-46
2024/02/09 10:43:35;;;;;;;5.03;1.50;;;8.60;99.90;;;;;;5019214;28;20480;-46
2024/02/09 10:46:06;;;;;;;2.77;1.53;;;8.60;99.90;;;;;;5013108;28;21012;-47
2024/02/09 10:48:41;;;;;;;2.90;2.20;;;8.60;99.90;;;;;;5017905;28;20952;-44
2024/02/09 10:51:14;;;;;;;2.00;1.60;;;8.60;99.90;;;;;;5014720;28;20835;-46
2024/02/09 10:53:52;;;;;;;3.77;1.20;;;8.60;99.90;;;;;;5016729;28;20471;-46
2024/02/09 10:56:26;;;;;;;1.60;1.00;;;8.60;99.90;;;;;;5017858;28;20544;-46
2024/02/09 10:58:58;;;;;;;1.50;0.90;;;8.60;99.90;;;;;;5021660;28;20913;-49
2024/02/09 11:01:29;;;;;;;3.30;1.43;;;8.60;99.90;;;;;;5016051;28;20467;-47
2024/02/09 11:03:59;;;;;;;3.27;1.97;;;8.60;99.90;;;;;;5017074;28;20507;-47
2024/02/09 11:06:28;;;;;;;2.10;1.60;;;8.70;99.90;;;;;;5014987;28;20535;-46
2024/02/09 11:08:58;;;;;;;2.30;1.30;;;8.70;99.90;;;;;;5019664;28;20460;-49
2024/02/09 11:11:32;;;;;;;2.53;1.27;;;8.70;99.90;;;;;;5017955;28;20477;-50
2024/02/09 11:14:11;;;;;;;1.80;1.13;;;8.60;99.90;;;;;;5012794;28;20957;-48
2024/02/09 11:16:45;;;;;;;3.07;1.63;;;8.70;99.90;;;;;;5015590;28;21110;-46
2024/02/09 11:19:17;;;;;;;2.47;1.30;;;8.60;99.90;;;;;;5020678;28;20805;-47
2024/02/09 11:21:48;;;;;;;1.80;1.00;;;8.60;99.90;;;;;;5012697;28;20496;-51
2024/02/09 11:24:19;;;;;;;1.90;1.10;;;8.70;99.90;;;;;;5020647;28;20455;-49
2024/02/09 11:26:52;;;;;;;2.03;1.53;;;8.70;99.90;;;;;;5013503;28;20545;-49
2024/02/09 11:29:24;;;;;;;1.60;1.13;;;8.60;99.90;;;;;;5018569;28;20436;-48
2024/02/09 11:31:56;;;;;;;1.60;1.07;;;8.70;99.90;;;;;;5013435;28;20555;-49
2024/02/09 11:34:26;;;;;;;1.93;1.20;;;8.70;99.90;;;;;;5019791;28;20486;-47
2024/02/09 11:37:00;;;;;;;1.97;1.23;;;8.70;99.90;;;;;;5018770;28;20491;-51
2024/02/09 11:39:29;;;;;;;1.87;1.03;;;8.70;99.90;;;;;;5012288;28;20436;-47
2024/02/09 11:42:00;;;;;;;2.80;1.33;;;8.70;99.90;;;;;;5017814;28;20488;-47
2024/02/09 11:44:33;;;;;;;2.30;1.23;;;8.70;99.90;;;;;;5020812;28;20544;-47
2024/02/09 11:47:03;;;;;;;2.03;1.60;;;8.70;99.90;;;;;;5016331;28;20476;-48
2024/02/09 11:49:32;;;;;;;2.43;1.00;;;8.70;99.90;;;;;;5020839;28;20443;-47
2024/02/09 11:52:09;;;;;;;2.27;1.40;;;8.70;99.90;;;;;;5019277;28;20478;-46
2024/02/09 11:54:50;;;;;;;1.83;1.20;;;8.70;99.90;;;;;;5017770;28;20821;-48
2024/02/09 11:57:30;;;;;;;2.93;1.93;;;8.70;99.90;;;;;;5015282;28;20432;-47
2024/02/09 12:00:09;;;;;;;1.63;1.10;;;8.70;99.90;;;;;;5011029;28;20482;-45
2024/02/09 12:02:49;;;;;;;2.10;1.60;;;8.80;99.90;;;;;;5016423;28;20542;-46
2024/02/09 12:05:26;;;;;;;3.80;1.27;;;8.90;99.90;;;;;;5011628;28;20558;-49
2024/02/09 12:07:55;;;;;;;2.53;1.57;;;9.00;99.90;;;;;;5025372;28;20438;-48
2024/02/09 12:10:26;;;;;;;2.00;1.40;;;9.00;99.90;;;;;;5024542;28;20468;-46
2024/02/09 12:13:05;;;;;;;2.10;1.43;;;9.00;99.90;;;;;;5016803;28;20470;-47
2024/02/09 12:15:43;;;;;;;2.80;1.50;;;9.00;99.90;;;;;;5015768;28;20488;-48
2024/02/09 12:18:23;;;;;;;7.43;2.30;;;9.00;99.90;;;;;;5020796;28;20915;-48
2024/02/09 12:20:57;;;;;;;2.27;1.47;;;9.00;99.90;;;;;;5021843;28;20464;-49
2024/02/09 12:23:39;;;;;;;4.60;1.30;;;9.00;99.90;;;;;;5020759;28;20471;-49
2024/02/09 12:26:21;;;;;;;2.57;1.70;;;9.00;99.90;;;;;;5016311;28;20521;-48
2024/02/09 12:29:10;;;;;;;2.67;1.57;;;9.00;99.90;;;;;;5023241;28;20478;-48
2024/02/09 12:31:43;;;;;;;2.43;1.53;;;8.90;99.90;;;;;;5019907;28;20625;-47
2024/02/09 12:34:16;;;;;;;3.00;1.20;;;8.90;99.90;;;;;;5020335;28;20452;-48
2024/02/09 12:36:57;;;;;;;2.60;1.50;;;8.90;99.90;;;;;;5020347;28;20464;-46
2024/02/09 12:39:28;;;;;;;1.80;1.33;;;8.90;99.90;;;;;;5024609;28;20809;-49
2024/02/09 12:42:00;;;;;;;2.63;1.73;;;8.90;99.90;;;;;;5016539;28;20498;-47
2024/02/09 12:44:30;;;;;;;1.80;1.30;;;8.90;99.90;;;;;;5022921;28;20475;-48
2024/02/09 12:47:04;;;;;;;3.37;1.80;;;8.90;99.90;;;;;;5018319;28;20490;-46
2024/02/09 12:49:34;;;;;;;1.93;1.13;;;8.90;99.90;;;;;;5024544;28;20509;-48
2024/02/09 12:52:08;;;;;;;2.80;1.37;;;8.90;99.90;;;;;;5023076;28;20503;-46
2024/02/09 12:54:39;;;;;;;2.10;1.57;;;8.90;99.90;;;;;;5019272;28;20777;-47
2024/02/09 12:57:09;;;;;;;1.80;1.33;;;8.90;99.90;;;;;;5017894;28;20530;-47
2024/02/09 12:59:40;;;;;;;9.60;1.70;;;8.90;99.90;;;;;;5022179;28;20439;-47
2024/02/09 13:02:12;;;;;;;3.27;1.60;;;8.90;99.90;;;;;;5014145;28;20503;-49
2024/02/09 13:04:42;;;;;;;2.93;1.23;;;8.90;99.90;;;;;;5020503;28;20459;-49
2024/02/09 13:07:14;;;;;;;2.00;1.17;;;8.80;99.90;;;;;;5020081;28;20431;-47
2024/02/09 13:09:44;;;;;;;2.37;1.40;;;8.90;99.90;;;;;;5022594;28;20432;-49
2024/02/09 13:12:39;;;;;;;6.80;2.20;;;8.80;99.90;;;;;;5017228;28;20494;-49
2024/02/09 13:15:11;;;;;;;3.90;1.70;;;8.90;99.90;;;;;;5017165;28;20304;-47
2024/02/09 13:17:43;;;;;;;3.10;1.60;;;9.00;99.90;;;;;;5016965;28;20527;-47
2024/02/09 13:20:12;;;;;;;5.60;2.00;;;8.90;99.90;;;;;;5018594;28;20764;-47
2024/02/09 13:22:44;;;;;;;2.70;1.63;;;8.90;99.90;;;;;;5018165;28;20456;-47
2024/02/09 13:25:18;;;;;;;2.80;1.37;;;9.00;99.90;;;;;;5007567;28;20472;-46
2024/02/09 13:27:47;;;;;;;3.67;1.37;;;9.10;99.90;;;;;;5019641;28;20442;-45
2024/02/09 13:30:19;;;;;;;5.67;1.20;;;9.10;99.90;;;;;;5018409;28;20464;-46
2024/02/09 13:32:49;;;;;;;3.43;1.20;;;9.10;99.90;;;;;;5019392;28;20459;-46
2024/02/09 13:35:20;;;;;;;2.33;1.20;;;9.10;99.90;;;;;;5015212;28;20467;-47
2024/02/09 13:37:49;;;;;;;2.13;1.10;;;9.10;99.90;;;;;;5023535;28;20430;-48
2024/02/09 13:40:22;;;;;;;1.70;1.20;;;9.00;99.90;;;;;;5023577;28;20452;-45
2024/02/09 13:42:53;;;;;;;3.50;1.60;;;9.00;99.90;;;;;;5022396;28;20924;-47
2024/02/09 13:45:25;;;;;;;1.77;1.10;;;9.00;99.90;;;;;;5013855;28;20538;-46
2024/02/09 13:47:58;;;;;;;2.70;1.40;;;9.00;99.90;;;;;;5017517;28;20440;-47
2024/02/09 13:50:29;;;;;;;3.30;1.40;;;8.90;99.90;;;;;;5021898;28;20534;-46
2024/02/09 13:52:58;;;;;;;1.80;1.37;;;9.00;99.90;;;;;;5019312;28;20472;-46
2024/02/09 13:55:29;;;;;;;2.23;1.80;;;9.00;99.90;;;;;;5014939;28;20834;-46
2024/02/09 13:57:58;;;;;;;5.93;1.77;;;9.00;99.90;;;;;;5021099;28;20452;-46
2024/02/09 14:00:28;;;;;;;3.63;1.40;;;9.00;99.90;;;;;;5014835;28;20496;-46
2024/02/09 14:02:59;;;;;;;3.13;1.50;;;9.00;99.90;;;;;;5015067;28;20479;-46
2024/02/09 14:05:28;;;;;;;2.03;1.60;;;9.00;99.90;;;;;;5020884;28;20538;-48
2024/02/09 14:08:00;;;;;;;1.47;1.10;;;8.90;99.90;;;;;;5022684;28;20435;-47
2024/02/09 14:10:31;;;;;;;2.67;1.80;;;8.90;99.90;;;;;;5021098;28;20479;-45
2024/02/09 14:13:01;;;;;;;2.30;1.43;;;8.90;99.90;;;;;;5017193;28;20478;-46
2024/02/09 14:15:33;;;;;;;2.33;1.20;;;8.90;99.90;;;;;;5012434;28;20550;-46
2024/02/09 14:18:05;;;;;;;2.27;1.80;;;8.90;99.90;;;;;;5015170;28;21218;-46
2024/02/09 14:20:36;;;;;;;1.77;1.13;;;8.90;99.90;;;;;;5020014;28;20496;-47
2024/02/09 14:23:05;;;;;;;1.87;1.40;;;8.90;99.90;;;;;;5012652;28;20463;-47
2024/02/09 14:25:38;;;;;;;3.03;1.00;;;8.90;99.90;;;;;;5008939;28;20817;-45
2024/02/09 14:28:08;;;;;;;1.53;1.33;;;8.90;99.90;;;;;;5014084;28;20548;-49
2024/02/09 14:30:39;;;;;;;1.87;1.60;;;8.90;99.90;;;;;;5022228;28;20464;-47
2024/02/09 14:33:09;;;;;;;2.10;1.50;;;8.90;99.90;;;;;;5016695;28;20487;-47
2024/02/09 14:35:39;;;;;;;3.30;1.57;;;8.90;99.90;;;;;;5012973;28;20460;-48
2024/02/09 14:38:09;;;;;;;2.33;1.37;;;8.90;99.90;;;;;;5014540;28;20486;-48
2024/02/09 14:40:39;;;;;;;1.73;1.33;;;8.90;99.90;;;;;;5017658;28;20470;-49
2024/02/09 14:43:10;;;;;;;2.17;1.57;;;8.90;99.90;;;;;;5023571;28;21363;-46
2024/02/09 14:45:39;;;;;;;2.00;1.20;;;8.90;99.90;;;;;;5018312;28;20476;-47
2024/02/09 14:48:10;;;;;;;3.00;1.27;;;8.90;99.90;;;;;;5014885;28;20444;-47
2024/02/09 14:50:39;;;;;;;1.70;1.17;;;8.90;99.90;;;;;;5021615;28;20484;-48
2024/02/09 14:53:08;;;;;;;2.70;1.33;;;8.90;99.90;;;;;;5015435;28;20444;-48
2024/02/09 14:55:37;;;;;;;1.80;1.20;;;8.90;99.90;;;;;;5014914;28;20495;-49
2024/02/09 14:58:08;;;;;;;2.97;1.20;;;8.90;99.90;;;;;;5015236;28;20587;-47
2024/02/09 15:00:38;;;;;;;2.23;1.27;;;8.90;99.90;;;;;;5018774;28;20745;-46
2024/02/09 15:03:08;;;;;;;1.97;1.30;;;8.90;99.90;;;;;;5008533;28;20808;-48
2024/02/09 15:05:42;;;;;;;1.40;1.10;;;8.90;99.90;;;;;;5013957;28;20468;-48
2024/02/09 15:08:12;;;;;;;2.20;1.07;;;8.90;99.90;;;;;;5016482;28;20436;-47